Terminal Aerodrome Forecast
Issued by NWS Spokane, WA

Home | Current Version | Previous Version | Text Only | Print | Product List | Glossary On
Versions: 1 2 3 4 5 6 7 8 9 10 11 12 13 14 15 16 17 18 19
000
FTUS46 KOTX 172335
TAFLWS
TAF
KLWS 172335Z 1800/1824 15014G22KT P6SM OVC070
     FM180500 15012KT P6SM -FZRA OVC040
     FM180900 15014G20KT P6SM -RA BKN030 OVC050
     FM181800 14015G22KT 6SM -RA OVC015=

USA.gov is the U.S. government's official web portal to all federal, state and local government web resources and services.